createdAt,value
2022-11-16T00:00:24.351Z,47.27
2022-11-16T00:03:05.604Z,74.10
2022-11-16T00:05:36.738Z,55.63
2022-11-16T00:08:07.511Z,63.77
2022-11-16T00:10:40.275Z,44.33
2022-11-16T00:13:11.318Z,46.20
2022-11-16T00:15:41.273Z,56.27
2022-11-16T00:18:11.650Z,56.00
2022-11-16T00:20:41.971Z,53.00
2022-11-16T00:23:12.301Z,50.53
2022-11-16T00:25:44.885Z,61.80
2022-11-16T00:28:15.258Z,44.23
2022-11-16T00:30:45.314Z,55.93
2022-11-16T00:33:18.032Z,52.90
2022-11-16T00:35:48.013Z,56.43
2022-11-16T00:38:18.437Z,83.00
2022-11-16T00:40:51.399Z,43.50
2022-11-16T00:43:21.765Z,44.47
2022-11-16T00:45:51.788Z,42.93
2022-11-16T00:48:22.511Z,43.63
2022-11-16T00:50:52.556Z,44.50
2022-11-16T00:53:23.434Z,45.03
2022-11-16T00:55:56.080Z,49.40
2022-11-16T00:58:26.653Z,45.03
2022-11-16T01:00:56.697Z,43.83
2022-11-16T01:03:27.051Z,42.23
2022-11-16T01:06:03.349Z,40.80
2022-11-16T01:08:33.989Z,43.53
2022-11-16T01:11:19.385Z,50.57
2022-11-16T01:13:50.205Z,42.47
2022-11-16T01:16:22.119Z,49.53
2022-11-16T01:18:54.134Z,53.43
2022-11-16T01:21:25.319Z,46.47
2022-11-16T01:23:55.782Z,45.10
2022-11-16T01:26:28.527Z,44.17
2022-11-16T01:29:00.580Z,49.00
2022-11-16T01:31:30.555Z,43.07
2022-11-16T01:34:00.931Z,45.87
2022-11-16T01:36:30.928Z,52.00
2022-11-16T01:39:01.441Z,45.73
2022-11-16T01:41:34.041Z,52.30
2022-11-16T01:44:07.040Z,44.73
2022-11-16T01:46:37.004Z,45.23
2022-11-16T01:49:10.962Z,46.93
2022-11-16T01:51:42.594Z,45.53
2022-11-16T01:54:16.497Z,51.13
2022-11-16T01:56:53.360Z,57.40
2022-11-16T01:59:24.353Z,48.33
2022-11-16T02:01:54.594Z,45.30
2022-11-16T02:04:25.506Z,45.90
2022-11-16T02:07:04.870Z,43.70
2022-11-16T02:10:01.235Z,49.40
2022-11-16T02:12:58.769Z,47.07
2022-11-16T02:15:34.391Z,46.70
2022-11-16T02:18:18.420Z,50.83
2022-11-16T02:21:03.885Z,44.50
2022-11-16T02:24:03.976Z,45.87
2022-11-16T02:27:07.942Z,48.03
2022-11-16T02:29:45.169Z,45.37
2022-11-16T02:32:19.884Z,48.73
2022-11-16T02:34:53.872Z,49.50
2022-11-16T02:40:38.997Z,44.53
2022-11-16T02:43:12.592Z,74.77
2022-11-16T02:45:48.978Z,44.03
2022-11-16T02:48:25.462Z,57.13
2022-11-16T02:50:56.672Z,57.57
2022-11-16T02:53:28.666Z,52.37
2022-11-16T02:56:02.515Z,47.13
2022-11-16T02:58:33.584Z,51.43
2022-11-16T03:01:11.376Z,46.40
2022-11-16T03:03:46.567Z,53.67
2022-11-16T03:06:20.863Z,52.47
2022-11-16T03:09:03.873Z,45.30
2022-11-16T03:11:48.822Z,50.00
2022-11-16T03:14:23.398Z,51.17
2022-11-16T03:16:59.801Z,45.70
2022-11-16T03:19:37.524Z,51.27
2022-11-16T03:22:13.043Z,54.20
2022-11-16T03:24:44.533Z,43.10
2022-11-16T03:27:26.123Z,45.40
2022-11-16T03:30:04.556Z,49.97
2022-11-16T03:32:48.100Z,47.83
2022-11-16T03:35:23.863Z,47.77
2022-11-16T03:37:59.037Z,63.80
2022-11-16T03:40:33.158Z,52.93
2022-11-16T03:43:04.593Z,73.87
2022-11-16T03:45:35.777Z,55.63
2022-11-16T03:48:09.801Z,66.27
2022-11-16T03:50:40.811Z,78.77
2022-11-16T03:53:10.737Z,57.17
2022-11-16T03:55:44.486Z,47.60
2022-11-16T03:58:18.689Z,53.37
2022-11-16T04:00:49.293Z,55.83
2022-11-16T04:03:22.797Z,60.53
2022-11-16T04:06:05.752Z,64.73
2022-11-16T04:08:48.192Z,70.47
2022-11-16T04:11:34.418Z,86.73
2022-11-16T04:14:16.800Z,64.73
2022-11-16T04:16:59.521Z,68.47
2022-11-16T04:19:58.245Z,66.20
2022-11-16T04:22:46.152Z,63.17
2022-11-16T04:25:21.241Z,81.87
2022-11-16T04:28:04.335Z,73.20
2022-11-16T04:30:57.074Z,66.70
2022-11-16T04:33:39.987Z,75.40
2022-11-16T04:36:25.245Z,77.90
2022-11-16T04:38:55.563Z,75.27
2022-11-16T04:41:37.906Z,72.07
2022-11-16T04:44:08.296Z,75.33
2022-11-16T04:46:50.679Z,78.10
2022-11-16T04:49:20.957Z,84.63
2022-11-16T04:51:53.490Z,81.97
2022-11-16T04:54:23.915Z,81.93
2022-11-16T04:56:53.922Z,97.27
2022-11-16T04:59:24.237Z,88.93
2022-11-16T05:02:06.606Z,89.73
2022-11-16T05:04:36.913Z,87.23
2022-11-16T05:07:12.023Z,95.33
2022-11-16T05:09:43.454Z,86.63
2022-11-16T05:12:14.896Z,84.33
2022-11-16T05:14:46.027Z,88.50
2022-11-16T05:17:17.649Z,90.03
2022-11-16T05:20:00.807Z,83.10
2022-11-16T05:22:33.615Z,84.57
2022-11-16T05:25:04.459Z,86.70
2022-11-16T05:27:34.690Z,93.73
2022-11-16T05:30:05.261Z,91.47
2022-11-16T05:32:35.501Z,96.87
2022-11-16T05:35:06.273Z,96.10
2022-11-16T05:37:39.144Z,92.03
2022-11-16T05:40:11.095Z,95.53
2022-11-16T05:42:41.096Z,94.00
2022-11-16T05:45:14.909Z,95.40
2022-11-16T05:47:48.418Z,95.07
2022-11-16T05:50:19.170Z,97.47
2022-11-16T05:52:51.734Z,100.37
2022-11-16T05:55:22.044Z,94.27
2022-11-16T05:57:52.035Z,98.00
2022-11-16T06:00:22.940Z,98.30
2022-11-16T06:02:52.994Z,99.67
2022-11-16T06:05:23.340Z,101.63
2022-11-16T06:07:56.007Z,94.03
2022-11-16T06:10:26.252Z,95.87
2022-11-16T06:12:56.389Z,102.23
2022-11-16T06:15:26.777Z,103.87
2022-11-16T06:17:56.733Z,109.83
2022-11-16T06:20:27.060Z,104.30
2022-11-16T06:22:59.750Z,104.73
2022-11-16T06:25:30.884Z,104.90
2022-11-16T06:28:06.628Z,109.87
2022-11-16T06:30:38.500Z,111.43
2022-11-16T06:33:08.912Z,106.67
2022-11-16T06:35:39.223Z,116.43
2022-11-16T06:38:13.725Z,107.00
2022-11-16T06:40:44.033Z,112.50
2022-11-16T06:43:14.548Z,106.43
2022-11-16T06:45:45.069Z,108.30
2022-11-16T06:48:15.040Z,113.83
2022-11-16T06:50:45.394Z,111.23
2022-11-16T06:53:18.287Z,122.60
2022-11-16T06:55:48.869Z,118.20
2022-11-16T06:58:19.056Z,124.20
2022-11-16T07:00:49.404Z,116.47
2022-11-16T07:03:19.339Z,125.57
2022-11-16T07:05:49.559Z,126.40
2022-11-16T07:08:22.310Z,128.90
2022-11-16T07:10:52.642Z,124.47
2022-11-16T07:13:22.626Z,134.90
2022-11-16T07:15:52.938Z,140.97
2022-11-16T07:18:22.945Z,133.60
2022-11-16T07:20:53.263Z,123.03
2022-11-16T07:23:25.896Z,135.77
2022-11-16T07:25:56.147Z,145.50
2022-11-16T07:28:26.133Z,133.43
2022-11-16T07:30:56.543Z,148.33
2022-11-16T07:33:26.521Z,144.67
2022-11-16T07:35:57.122Z,148.27
2022-11-16T07:38:29.744Z,136.33
2022-11-16T07:41:03.076Z,141.47
2022-11-16T07:43:35.142Z,159.03
2022-11-16T07:46:44.800Z,139.53
2022-11-16T07:48:56.697Z,153.67
2022-11-16T07:51:27.622Z,151.00
2022-11-16T07:54:00.841Z,162.47
2022-11-16T07:56:31.321Z,143.33
2022-11-16T07:59:02.421Z,157.80
2022-11-16T08:01:33.356Z,137.83
2022-11-16T08:04:04.487Z,150.43
2022-11-16T08:06:35.013Z,158.03
2022-11-16T08:09:07.716Z,147.13
2022-11-16T08:11:38.305Z,156.90
2022-11-16T08:14:08.444Z,149.90
2022-11-16T08:16:38.851Z,144.97
2022-11-16T08:19:09.065Z,150.47
2022-11-16T08:21:48.442Z,152.47
2022-11-16T08:24:20.975Z,149.40
2022-11-16T08:26:51.403Z,144.10
2022-11-16T08:29:21.598Z,136.27
2022-11-16T08:31:54.966Z,122.60
2022-11-16T08:34:24.935Z,120.77
2022-11-16T08:36:56.099Z,128.97
2022-11-16T08:39:28.667Z,126.67
2022-11-16T08:41:59.686Z,133.53
2022-11-16T08:44:31.508Z,140.73
2022-11-16T08:47:01.901Z,118.83
2022-11-16T08:49:31.891Z,118.40
2022-11-16T08:52:02.308Z,107.30
2022-11-16T08:54:34.905Z,109.93
2022-11-16T08:57:05.274Z,100.03
2022-11-16T08:59:35.205Z,100.30
2022-11-16T09:02:06.037Z,103.07
2022-11-16T09:04:37.310Z,101.03
2022-11-16T09:07:13.653Z,110.83
2022-11-16T09:09:46.813Z,99.43
2022-11-16T09:12:17.825Z,90.80
2022-11-16T09:14:47.792Z,96.13
2022-11-16T09:17:22.954Z,97.90
2022-11-16T09:19:53.328Z,86.27
2022-11-16T09:22:23.863Z,85.37
2022-11-16T09:24:56.414Z,84.27
2022-11-16T09:27:27.061Z,93.13
2022-11-16T09:29:57.110Z,95.33
2022-11-16T09:32:27.464Z,84.47
2022-11-16T09:34:57.732Z,79.30
2022-11-16T09:37:28.382Z,78.83
2022-11-16T09:40:00.878Z,75.07
2022-11-16T09:42:53.699Z,75.53
2022-11-16T09:45:31.847Z,68.97
2022-11-16T09:48:06.456Z,65.17
2022-11-16T09:50:45.047Z,73.20
2022-11-16T09:53:28.604Z,56.53
2022-11-16T09:56:05.600Z,54.27
2022-11-16T09:58:43.546Z,56.30
2022-11-16T10:01:23.997Z,52.43
2022-11-16T10:04:02.776Z,57.80
2022-11-16T10:06:44.550Z,43.83
2022-11-16T10:09:15.810Z,37.73
2022-11-16T10:11:59.174Z,34.87
2022-11-16T10:14:54.669Z,36.37
2022-11-16T10:17:35.079Z,30.00
2022-11-16T10:20:19.678Z,35.20
2022-11-16T10:22:59.392Z,34.63
2022-11-16T10:25:35.871Z,36.70
2022-11-16T10:28:32.132Z,35.20
2022-11-16T10:31:09.740Z,35.70
2022-11-16T10:33:41.414Z,38.57
2022-11-16T10:36:16.155Z,40.47
2022-11-16T10:38:47.763Z,40.13
2022-11-16T10:41:22.554Z,36.93
2022-11-16T10:43:56.002Z,36.57
2022-11-16T10:46:30.917Z,43.20
2022-11-16T10:49:07.578Z,42.67
2022-11-16T10:51:37.885Z,39.93
2022-11-16T10:54:15.268Z,43.33
2022-11-16T10:56:48.037Z,43.67
2022-11-16T10:59:22.214Z,49.53
2022-11-16T11:01:53.970Z,40.20
2022-11-16T11:04:26.828Z,43.07
2022-11-16T11:06:59.313Z,43.73
2022-11-16T11:09:31.775Z,37.30
2022-11-16T11:12:28.116Z,41.27
2022-11-16T11:15:27.155Z,42.13
2022-11-16T11:18:14.218Z,41.20
2022-11-16T11:20:46.986Z,36.17
2022-11-16T11:23:20.568Z,35.17
2022-11-16T11:25:56.476Z,36.60
2022-11-16T11:28:30.102Z,38.13
2022-11-16T11:31:06.616Z,38.03
2022-11-16T11:33:39.056Z,35.13
2022-11-16T11:36:14.782Z,38.37
2022-11-16T11:38:59.336Z,33.93
2022-11-16T11:41:35.159Z,42.43
2022-11-16T11:44:07.352Z,36.67
2022-11-16T11:47:28.756Z,36.07
2022-11-16T11:49:38.663Z,42.43
2022-11-16T11:52:17.351Z,39.90
2022-11-16T11:54:49.450Z,38.03
2022-11-16T11:57:24.970Z,33.97
2022-11-16T11:59:57.306Z,35.97
2022-11-16T12:02:45.415Z,41.30
2022-11-16T12:05:37.354Z,38.50
2022-11-16T12:08:24.126Z,41.77
2022-11-16T12:11:03.116Z,40.93
2022-11-16T12:13:49.135Z,37.70
2022-11-16T12:16:29.739Z,36.70
2022-11-16T12:19:19.648Z,38.70
2022-11-16T12:22:03.989Z,39.77
2022-11-16T12:25:03.227Z,36.93
2022-11-16T12:27:42.540Z,38.50
2022-11-16T12:30:16.155Z,41.83
2022-11-16T12:33:08.096Z,34.83
2022-11-16T12:35:55.793Z,43.03
2022-11-16T12:38:37.611Z,38.63
2022-11-16T12:41:31.534Z,40.20
2022-11-16T12:44:03.831Z,40.33
2022-11-16T12:46:43.054Z,38.53
2022-11-16T12:49:38.479Z,39.70
2022-11-16T12:52:28.489Z,43.13
2022-11-16T12:55:25.781Z,42.27
2022-11-16T12:58:13.062Z,38.80
2022-11-16T13:00:55.721Z,39.17
2022-11-16T13:03:33.853Z,41.50
2022-11-16T13:06:07.873Z,41.77
2022-11-16T13:08:53.556Z,43.07
2022-11-16T13:11:28.410Z,38.27
2022-11-16T13:14:02.570Z,36.77
2022-11-16T13:16:33.494Z,37.60
2022-11-16T13:19:06.289Z,36.03
2022-11-16T13:21:48.572Z,33.87
2022-11-16T13:24:46.762Z,34.27
2022-11-16T13:27:31.443Z,38.70
2022-11-16T13:30:06.699Z,38.33
2022-11-16T13:32:52.062Z,37.33
2022-11-16T13:35:23.984Z,35.87
2022-11-16T13:37:54.560Z,36.07
2022-11-16T13:40:32.273Z,34.63
2022-11-16T13:43:08.723Z,35.43
2022-11-16T13:45:42.830Z,35.90
2022-11-16T13:48:21.810Z,36.43
2022-11-16T13:50:58.819Z,33.53
2022-11-16T13:56:29.261Z,33.47
2022-11-16T13:59:01.270Z,34.80
2022-11-16T14:01:59.504Z,29.30
2022-11-16T14:04:45.078Z,33.67
2022-11-16T14:07:31.747Z,34.67
2022-11-16T14:10:05.628Z,33.30
2022-11-16T14:13:04.325Z,28.73
2022-11-16T14:15:37.275Z,30.90
2022-11-16T14:18:37.344Z,33.00
2022-11-16T14:21:20.008Z,33.43
2022-11-16T14:24:05.148Z,31.80
2022-11-16T14:26:47.518Z,28.20
2022-11-16T14:29:36.703Z,27.80
2022-11-16T14:32:20.299Z,27.40
2022-11-16T14:34:53.335Z,28.90
2022-11-16T14:37:37.371Z,27.50
2022-11-16T14:40:11.683Z,28.33
2022-11-16T14:45:50.105Z,28.60
2022-11-16T14:48:22.727Z,26.90
2022-11-16T14:51:04.511Z,26.37
2022-11-16T14:53:38.167Z,27.77
2022-11-16T14:56:11.212Z,29.40
2022-11-16T14:58:42.351Z,26.47
2022-11-16T15:01:17.800Z,26.13
2022-11-16T15:03:56.797Z,27.43
2022-11-16T15:06:29.532Z,27.73
2022-11-16T15:09:04.580Z,25.93
2022-11-16T15:11:49.066Z,29.07
2022-11-16T15:14:22.986Z,27.57
2022-11-16T15:16:57.959Z,27.73
2022-11-16T15:19:32.084Z,30.23
2022-11-16T15:22:04.211Z,31.20
2022-11-16T15:24:36.247Z,28.17
2022-11-16T15:27:21.743Z,35.20
2022-11-16T15:29:52.496Z,34.93
2022-11-16T15:32:25.386Z,29.27
2022-11-16T15:35:02.484Z,27.67
2022-11-16T15:37:35.168Z,27.87
2022-11-16T15:40:06.128Z,31.00
2022-11-16T15:42:36.704Z,26.37
2022-11-16T15:45:15.751Z,29.20
2022-11-16T15:47:49.539Z,27.27
2022-11-16T15:50:23.203Z,27.27
2022-11-16T15:53:03.112Z,27.63
2022-11-16T15:55:37.714Z,34.37
2022-11-16T15:58:17.830Z,29.47
2022-11-16T16:00:51.119Z,32.93
2022-11-16T16:03:27.724Z,33.57
2022-11-16T16:05:58.701Z,28.00
2022-11-16T16:08:34.305Z,24.83
2022-11-16T16:11:12.790Z,27.70
2022-11-16T16:13:45.274Z,26.33
2022-11-16T16:16:32.229Z,28.00
2022-11-16T16:19:09.948Z,26.10
2022-11-16T16:21:46.484Z,23.47
2022-11-16T16:24:42.178Z,22.70
2022-11-16T16:27:18.669Z,26.20
2022-11-16T16:29:50.214Z,20.73
2022-11-16T16:32:27.025Z,31.00
2022-11-16T16:35:01.741Z,21.57
2022-11-16T16:37:35.772Z,22.50
2022-11-16T16:40:07.449Z,22.83
2022-11-16T16:42:38.141Z,20.87
2022-11-16T16:45:15.000Z,23.33
2022-11-16T16:47:45.573Z,22.03
2022-11-16T16:50:19.589Z,22.47
2022-11-16T16:52:50.241Z,23.23
2022-11-16T16:55:20.583Z,32.57
2022-11-16T16:57:51.316Z,25.90
2022-11-16T17:00:21.705Z,20.03
2022-11-16T17:02:52.028Z,22.07
2022-11-16T17:05:24.802Z,21.27
2022-11-16T17:07:57.858Z,22.53
2022-11-16T17:10:28.228Z,18.97
2022-11-16T17:12:59.118Z,19.93
2022-11-16T17:15:29.362Z,19.97
2022-11-16T17:18:01.015Z,18.03
2022-11-16T17:20:33.832Z,19.93
2022-11-16T17:23:04.494Z,19.20
2022-11-16T17:25:34.882Z,20.13
2022-11-16T17:28:05.291Z,21.37
2022-11-16T17:30:35.476Z,21.50
2022-11-16T17:33:05.825Z,19.97
2022-11-16T17:35:38.413Z,32.67
2022-11-16T17:38:09.841Z,20.03
2022-11-16T17:40:39.812Z,18.77
2022-11-16T17:43:10.086Z,20.50
2022-11-16T17:45:40.030Z,17.73
2022-11-16T17:48:10.286Z,22.37
2022-11-16T17:50:42.844Z,17.43
2022-11-16T17:53:13.124Z,19.40
2022-11-16T17:55:43.264Z,17.80
2022-11-16T17:58:13.663Z,25.50
2022-11-16T18:00:43.731Z,17.70
2022-11-16T18:03:14.087Z,19.53
2022-11-16T18:05:46.745Z,15.87
2022-11-16T18:08:17.080Z,15.47
2022-11-16T18:10:47.072Z,17.73
2022-11-16T18:13:17.387Z,14.47
2022-11-16T18:15:47.376Z,18.87
2022-11-16T18:18:19.334Z,17.43
2022-11-16T18:20:52.313Z,14.93
2022-11-16T18:23:22.536Z,16.03
2022-11-16T18:25:52.458Z,14.60
2022-11-16T18:28:22.730Z,17.60
2022-11-16T18:30:53.208Z,15.30
2022-11-16T18:33:27.808Z,14.07
2022-11-16T18:36:02.841Z,15.83
2022-11-16T18:38:33.373Z,15.57
2022-11-16T18:41:08.561Z,14.57
2022-11-16T18:43:38.862Z,16.87
2022-11-16T18:46:08.885Z,16.53
2022-11-16T18:48:40.634Z,13.57
2022-11-16T18:51:13.806Z,13.77
2022-11-16T18:53:44.230Z,19.80
2022-11-16T18:56:14.448Z,14.50
2022-11-16T18:58:53.525Z,14.13
2022-11-16T19:01:26.078Z,11.70
2022-11-16T19:03:58.471Z,14.40
2022-11-16T19:06:34.765Z,14.07
2022-11-16T19:09:09.580Z,12.60
2022-11-16T19:11:39.865Z,13.03
2022-11-16T19:14:10.638Z,12.53
2022-11-16T19:16:48.994Z,13.57
2022-11-16T19:19:22.050Z,21.13
2022-11-16T19:21:56.388Z,12.33
2022-11-16T19:24:27.032Z,17.93
2022-11-16T19:26:57.260Z,12.10
2022-11-16T19:29:28.247Z,16.13
2022-11-16T19:31:58.890Z,14.27
2022-11-16T19:34:33.312Z,12.90
2022-11-16T19:37:06.361Z,11.10
2022-11-16T19:39:36.616Z,11.33
2022-11-16T19:42:07.048Z,10.67
2022-11-16T19:44:37.398Z,10.63
2022-11-16T19:47:07.779Z,16.27
2022-11-16T19:49:38.142Z,12.93
2022-11-16T19:52:10.711Z,11.00
2022-11-16T19:54:41.035Z,12.57
2022-11-16T19:57:11.530Z,11.90
2022-11-16T19:59:41.810Z,11.20
2022-11-16T20:02:12.158Z,12.00
2022-11-16T20:04:42.477Z,11.77
2022-11-16T20:07:18.070Z,30.50
2022-11-16T20:09:53.248Z,15.73
2022-11-16T20:12:23.461Z,11.30
2022-11-16T20:14:54.016Z,10.10
2022-11-16T20:17:23.933Z,10.93
2022-11-16T20:19:54.234Z,11.40
2022-11-16T20:22:26.836Z,11.27
2022-11-16T20:24:57.413Z,10.83
2022-11-16T20:27:27.431Z,12.13
2022-11-16T20:29:57.739Z,9.03
2022-11-16T20:32:28.012Z,13.70
2022-11-16T20:34:58.350Z,10.03
2022-11-16T20:37:30.902Z,10.33
2022-11-16T20:40:01.229Z,10.40
2022-11-16T20:42:31.157Z,12.23
2022-11-16T20:45:01.479Z,13.20
2022-11-16T20:47:31.520Z,11.63
2022-11-16T20:50:03.202Z,13.77
2022-11-16T20:52:41.133Z,12.80
2022-11-16T20:55:13.106Z,12.60
2022-11-16T20:57:43.123Z,10.63
2022-11-16T21:00:15.281Z,11.43
2022-11-16T21:02:45.318Z,10.23
2022-11-16T21:05:15.615Z,7.53
2022-11-16T21:07:48.145Z,12.90
2022-11-16T21:10:22.232Z,10.97
2022-11-16T21:13:04.630Z,10.57
2022-11-16T21:15:35.022Z,10.93
2022-11-16T21:18:05.129Z,9.77
2022-11-16T21:20:35.383Z,12.23
2022-11-16T21:23:08.254Z,11.40
2022-11-16T21:25:38.564Z,10.23
2022-11-16T21:28:08.498Z,11.10
2022-11-16T21:30:38.823Z,12.33
2022-11-16T21:33:09.102Z,9.03
2022-11-16T21:35:39.785Z,9.03
2022-11-16T21:38:12.662Z,9.37
2022-11-16T21:40:43.432Z,9.53
2022-11-16T21:43:15.023Z,10.33
2022-11-16T21:45:45.735Z,6.70
2022-11-16T21:48:16.574Z,8.63
2022-11-16T21:50:47.298Z,8.40
2022-11-16T21:53:19.886Z,9.00
2022-11-16T21:55:51.589Z,10.23
2022-11-16T21:58:21.573Z,8.37
2022-11-16T22:00:51.969Z,8.70
2022-11-16T22:03:21.939Z,8.93
2022-11-16T22:06:11.620Z,8.63
2022-11-16T22:08:44.583Z,8.07
2022-11-16T22:11:15.597Z,9.07
2022-11-16T22:13:46.062Z,9.93
2022-11-16T22:16:17.783Z,10.13
2022-11-16T22:18:47.833Z,10.00
2022-11-16T22:21:18.174Z,13.33
2022-11-16T22:23:50.743Z,9.53
2022-11-16T22:26:21.265Z,9.17
2022-11-16T22:28:51.262Z,8.20
2022-11-16T22:31:21.725Z,14.90
2022-11-16T22:33:55.451Z,9.47
2022-11-16T22:36:25.754Z,10.17
2022-11-16T22:38:59.097Z,9.20
2022-11-16T22:41:29.379Z,8.17
2022-11-16T22:43:59.376Z,9.20
2022-11-16T22:46:29.726Z,15.17
2022-11-16T22:48:59.740Z,9.67
2022-11-16T22:51:31.787Z,8.90
2022-11-16T22:54:05.685Z,8.73
2022-11-16T22:56:36.875Z,9.17
2022-11-16T22:59:09.737Z,8.23
2022-11-16T23:01:40.561Z,7.63
2022-11-16T23:04:10.560Z,10.23
2022-11-16T23:06:41.205Z,9.20
2022-11-16T23:09:14.954Z,8.50
2022-11-16T23:11:57.642Z,9.93
2022-11-16T23:14:42.658Z,9.53
2022-11-16T23:17:13.057Z,9.13
2022-11-16T23:19:55.414Z,11.60
2022-11-16T23:22:38.171Z,9.77
2022-11-16T23:25:26.900Z,12.70
2022-11-16T23:28:01.179Z,9.83
2022-11-16T23:30:31.131Z,10.10
2022-11-16T23:33:01.835Z,10.10
2022-11-16T23:35:31.900Z,10.23
2022-11-16T23:38:03.784Z,8.60
2022-11-16T23:40:38.916Z,10.03
2022-11-16T23:43:24.674Z,10.40
2022-11-16T23:45:54.618Z,15.03
2022-11-16T23:48:25.229Z,10.83
2022-11-16T23:50:55.465Z,10.33
2022-11-16T23:53:26.111Z,10.63
2022-11-16T23:56:06.185Z,13.97
2022-11-16T23:58:37.033Z,11.87
